createdAt,value
2023-02-09T10:32:45.463Z,102467.90
2023-02-09T10:35:27.963Z,102467.21
2023-02-09T10:38:02.327Z,102461.91
2023-02-09T10:40:39.461Z,102453.60
2023-02-09T10:43:39.073Z,102448.80
2023-02-09T10:46:48.555Z,102448.73
2023-02-09T10:49:35.576Z,102439.27
2023-02-09T10:52:10.636Z,102431.58
2023-02-09T10:54:49.016Z,102425.52
2023-02-09T10:57:37.574Z,102421.10
2023-02-09T11:00:17.222Z,102420.36
2023-02-09T11:02:48.772Z,102410.36
2023-02-09T11:05:23.406Z,102404.38
2023-02-09T11:08:16.846Z,102402.25
2023-02-09T11:10:58.719Z,102399.44
2023-02-09T11:13:27.603Z,102402.02
2023-02-09T11:16:14.311Z,102394.64
2023-02-09T11:18:49.683Z,102383.76
2023-02-09T11:21:33.231Z,102377.38
2023-02-09T11:24:12.482Z,102374.52
2023-02-09T11:26:50.041Z,102364.60
2023-02-09T11:38:14.235Z,102357.80
2023-02-09T11:40:48.603Z,102353.03
2023-02-09T11:43:41.665Z,102355.33
2023-02-09T11:46:23.309Z,102350.98
2023-02-09T11:49:00.771Z,102342.17
2023-02-09T11:51:31.616Z,102336.06
2023-02-09T11:54:09.238Z,102331.74
2023-02-09T11:56:46.636Z,102335.07
2023-02-09T11:59:37.335Z,102333.10
2023-02-09T12:02:15.647Z,102326.97
2023-02-09T12:05:17.269Z,102327.45
2023-02-09T12:08:30.141Z,102324.52
2023-02-09T12:11:23.894Z,102317.28
2023-02-09T12:14:01.349Z,102314.47
2023-02-09T12:16:43.051Z,102312.47
2023-02-09T12:19:34.882Z,102307.72
2023-02-09T12:22:34.907Z,102299.54
2023-02-09T12:25:12.342Z,102299.55
2023-02-09T12:27:43.275Z,102297.13
2023-02-09T12:30:43.189Z,102288.08
2023-02-09T12:33:24.249Z,102280.71
2023-02-09T12:36:04.643Z,102277.27
2023-02-09T12:39:03.852Z,102264.61
2023-02-09T12:41:55.473Z,102261.79
2023-02-09T12:44:23.941Z,102249.95
2023-02-09T12:46:55.650Z,102248.73
2023-02-09T12:49:30.961Z,102246.02
2023-02-09T12:52:02.428Z,102242.21
2023-02-09T12:54:57.082Z,102238.02
2023-02-09T12:58:08.400Z,102230.36
2023-02-09T13:00:42.903Z,102227.47
2023-02-09T13:03:17.413Z,102231.59
2023-02-09T13:05:48.144Z,102238.98
2023-02-09T13:08:24.647Z,102233.60
2023-02-09T13:11:25.479Z,102234.71
2023-02-09T13:13:56.242Z,102232.36
2023-02-09T13:16:31.436Z,102226.89
2023-02-09T13:19:18.710Z,102223.64
2023-02-09T13:22:02.491Z,102214.86
2023-02-09T13:24:53.355Z,102213.87
2023-02-09T13:27:22.960Z,102208.77
2023-02-09T13:29:57.455Z,102200.52
2023-02-09T13:32:50.656Z,102198.02
2023-02-09T13:35:34.948Z,102194.31
2023-02-09T13:38:17.074Z,102191.09
2023-02-09T13:40:49.053Z,102189.09
2023-02-09T13:43:29.885Z,102184.89
2023-02-09T13:46:00.299Z,102180.42
2023-02-09T13:48:33.423Z,102177.91
2023-02-09T13:51:05.177Z,102171.92
2023-02-09T13:53:36.100Z,102174.23
2023-02-09T13:56:12.392Z,102173.55
2023-02-09T13:58:40.930Z,102172.71
2023-02-09T14:01:26.587Z,102170.54
2023-02-09T14:04:16.399Z,102170.85
2023-02-09T14:06:52.433Z,102170.98
2023-02-09T14:09:30.177Z,102169.11
2023-02-09T14:12:06.838Z,102167.95
2023-02-09T14:15:01.138Z,102172.06
2023-02-09T14:17:38.844Z,102166.11
2023-02-09T14:20:21.865Z,102163.84
2023-02-09T14:23:02.441Z,102166.73
2023-02-09T14:25:34.246Z,102164.87
2023-02-09T14:28:03.957Z,102157.84
2023-02-09T14:30:38.082Z,102151.67
2023-02-09T14:33:08.317Z,102146.36
2023-02-09T14:35:39.755Z,102144.48
2023-02-09T14:38:48.282Z,102142.69
2023-02-09T14:41:26.246Z,102136.37
2023-02-09T14:44:22.720Z,102137.85
2023-02-09T14:46:56.154Z,102135.13
2023-02-09T14:49:26.776Z,102132.39
2023-02-09T14:52:07.040Z,102125.11
2023-02-09T14:54:46.950Z,102124.55
2023-02-09T14:57:22.639Z,102119.52
2023-02-09T14:59:51.615Z,102121.59
2023-02-09T15:02:26.774Z,102120.89
2023-02-09T15:05:00.831Z,102123.92
2023-02-09T15:07:45.816Z,102123.14
2023-02-09T15:10:29.549Z,102118.45
2023-02-09T15:12:58.987Z,102117.93
2023-02-09T15:15:28.004Z,102119.20
2023-02-09T15:17:59.485Z,102120.45
2023-02-09T15:20:31.568Z,102124.86
2023-02-09T15:23:02.476Z,102123.70
2023-02-09T15:25:31.455Z,102125.11
2023-02-09T15:28:03.157Z,102121.96
2023-02-09T15:30:36.093Z,102124.84
2023-02-09T15:33:07.186Z,102118.70
2023-02-09T15:35:42.910Z,102117.07
2023-02-09T15:38:15.834Z,102116.04
2023-02-09T15:41:15.313Z,102119.94
2023-02-09T15:44:06.133Z,102119.87
2023-02-09T15:46:53.305Z,102116.14
2023-02-09T15:49:26.726Z,102114.11
2023-02-09T15:51:55.008Z,102105.38
2023-02-09T15:54:30.420Z,102098.13
2023-02-09T15:57:04.281Z,102097.13
2023-02-09T15:59:39.507Z,102096.23
2023-02-09T16:02:13.993Z,102093.02
2023-02-09T16:04:43.652Z,102089.64
2023-02-09T16:07:25.096Z,102086.98
2023-02-09T16:09:54.401Z,102083.21
2023-02-09T16:12:26.152Z,102085.73
2023-02-09T16:14:59.237Z,102082.09
2023-02-09T16:17:29.168Z,102079.88
2023-02-09T16:19:59.860Z,102076.06
2023-02-09T16:22:29.247Z,102078.27
2023-02-09T16:24:58.762Z,102079.23
2023-02-09T16:27:29.853Z,102083.92
2023-02-09T16:29:59.909Z,102083.09
2023-02-09T16:32:32.702Z,102080.82
2023-02-09T16:44:49.015Z,102067.45
2023-02-09T16:47:40.472Z,102064.73
2023-02-09T16:50:33.754Z,102057.69
2023-02-09T16:53:14.345Z,102055.84
2023-02-09T16:55:49.248Z,102057.75
2023-02-09T16:58:22.065Z,102056.64
2023-02-09T17:00:52.510Z,102058.69
2023-02-09T17:03:26.934Z,102056.36
2023-02-09T17:05:58.026Z,102058.48
2023-02-09T17:08:32.371Z,102062.51
2023-02-09T17:11:04.368Z,102057.64
2023-02-09T17:13:33.118Z,102056.84
2023-02-09T17:16:05.603Z,102056.17
2023-02-09T17:18:39.374Z,102053.26
2023-02-09T17:21:21.225Z,102052.36
2023-02-09T17:23:51.219Z,102045.05
2023-02-09T17:26:21.012Z,102045.02
2023-02-09T17:28:49.774Z,102041.95
2023-02-09T17:31:25.900Z,102037.36
2023-02-09T17:33:57.583Z,102034.45
2023-02-09T17:36:28.630Z,102030.88
2023-02-09T17:39:03.132Z,102028.61
2023-02-09T17:41:48.706Z,102026.45
2023-02-09T17:44:45.137Z,102023.39
2023-02-09T17:47:30.648Z,102024.32
2023-02-09T17:50:08.470Z,102024.45
2023-02-09T17:52:39.488Z,102019.94
2023-02-09T17:55:16.635Z,102016.51
2023-02-09T17:57:45.583Z,102011.73
2023-02-09T18:00:15.852Z,102007.73
2023-02-09T18:02:45.720Z,102003.44
2023-02-09T18:05:21.085Z,101994.40
2023-02-09T18:07:50.073Z,101991.46
2023-02-09T18:10:21.560Z,101989.14
2023-02-09T18:12:53.370Z,101988.30
2023-02-09T18:15:26.068Z,101987.95
2023-02-09T18:17:55.056Z,101988.52
2023-02-09T18:20:28.211Z,101981.36
2023-02-09T18:22:59.188Z,101981.33
2023-02-09T18:25:37.821Z,101978.58
2023-02-09T18:28:12.399Z,101969.48
2023-02-09T18:30:43.737Z,101971.13
2023-02-09T18:33:19.544Z,101971.02
2023-02-09T18:36:01.470Z,101961.98
2023-02-09T18:38:31.920Z,101960.23
2023-02-09T18:41:03.943Z,101959.48
2023-02-09T18:43:32.499Z,101958.29
2023-02-09T18:46:02.248Z,101957.80
2023-02-09T18:48:34.032Z,101947.15
2023-02-09T18:51:05.549Z,101949.63
2023-02-09T18:53:38.916Z,101951.77
2023-02-09T18:56:59.405Z,101948.93
2023-02-09T18:59:32.502Z,101946.88
2023-02-09T19:02:04.085Z,101941.55
2023-02-09T19:04:41.190Z,101943.36
2023-02-09T19:07:45.719Z,101944.04
2023-02-09T19:10:23.435Z,101948.44
2023-02-09T19:12:54.422Z,101945.81
2023-02-09T19:15:30.226Z,101946.27
2023-02-09T19:18:00.315Z,101942.10
2023-02-09T19:20:31.361Z,101933.70
2023-02-09T19:23:00.413Z,101929.61
2023-02-09T19:25:31.355Z,101923.54
2023-02-09T19:28:00.558Z,101922.46
2023-02-09T19:30:29.078Z,101923.21
2023-02-09T19:33:02.395Z,101914.45
2023-02-09T19:35:32.362Z,101920.83
2023-02-09T19:38:00.912Z,101922.95
2023-02-09T19:40:36.560Z,101922.30
2023-02-09T19:43:08.786Z,101919.02
2023-02-09T19:45:37.964Z,101919.49
2023-02-09T19:48:09.725Z,101921.71
2023-02-09T19:50:40.694Z,101914.80
2023-02-09T19:53:09.807Z,101914.98
2023-02-09T19:55:39.234Z,101914.80
2023-02-09T19:58:09.145Z,101905.87
2023-02-09T20:00:38.683Z,101904.55
2023-02-09T20:03:14.175Z,101906.88
2023-02-09T20:05:44.993Z,101911.98
2023-02-09T20:08:19.309Z,101910.27
2023-02-09T20:10:48.870Z,101900.27
2023-02-09T20:15:50.742Z,101880.84
2023-02-09T20:18:25.677Z,101883.19
2023-02-09T20:20:56.754Z,101879.12
2023-02-09T20:23:25.350Z,101882.51
2023-02-09T20:25:58.276Z,101890.04
2023-02-09T20:28:27.632Z,101890.80
2023-02-09T20:31:02.123Z,101887.85
2023-02-09T20:33:32.504Z,101879.09
2023-02-09T20:36:09.764Z,101871.27
2023-02-09T20:38:40.062Z,101870.53
2023-02-09T20:41:11.924Z,101873.17
2023-02-09T20:44:00.191Z,101876.83
2023-02-09T20:46:52.351Z,101872.79
2023-02-09T20:49:38.571Z,101870.85
2023-02-09T20:52:21.963Z,101878.57
2023-02-09T20:54:52.308Z,101882.89
2023-02-09T20:57:36.798Z,101884.13
2023-02-09T21:00:10.712Z,101883.76
2023-02-09T21:02:42.695Z,101888.35
2023-02-09T21:05:15.473Z,101886.48
2023-02-09T21:07:47.061Z,101893.22
2023-02-09T21:10:20.309Z,101891.84
2023-02-09T21:12:49.502Z,101888.14
2023-02-09T21:15:18.563Z,101889.82
2023-02-09T21:17:50.567Z,101889.36
2023-02-09T21:20:22.758Z,101892.58
2023-02-09T21:22:54.698Z,101895.41
2023-02-09T21:25:29.269Z,101897.79
2023-02-09T21:28:03.953Z,101892.98
2023-02-09T21:30:39.460Z,101894.77
2023-02-09T21:33:12.047Z,101893.05
2023-02-09T21:35:42.201Z,101890.63
2023-02-09T21:38:10.786Z,101877.54
2023-02-09T21:40:42.630Z,101866.35
2023-02-09T21:43:27.075Z,101859.25
2023-02-09T21:45:55.435Z,101852.23
2023-02-09T21:48:24.652Z,101853.43
2023-02-09T21:50:53.729Z,101851.73
2023-02-09T21:53:23.468Z,101849.55
2023-02-09T21:55:52.934Z,101849.57
2023-02-09T21:58:21.682Z,101848.80
2023-02-09T22:00:58.250Z,101851.08
2023-02-09T22:03:26.720Z,101845.22
2023-02-09T22:06:02.708Z,101844.61
2023-02-09T22:08:31.802Z,101844.89
2023-02-09T22:11:02.601Z,101850.85
2023-02-09T22:13:31.189Z,101858.05
2023-02-09T22:15:59.544Z,101856.83
2023-02-09T22:18:27.811Z,101857.42
2023-02-09T22:20:57.587Z,101857.80
2023-02-09T22:23:27.340Z,101862.13
2023-02-09T22:26:02.681Z,101865.48
2023-02-09T22:28:32.626Z,101864.93
2023-02-09T22:31:13.301Z,101857.91
2023-02-09T22:33:42.622Z,101854.66
2023-02-09T22:36:19.060Z,101850.09
2023-02-09T22:38:47.513Z,101851.07
2023-02-09T22:41:22.064Z,101854.25
2023-02-09T22:43:59.659Z,101844.20
2023-02-09T22:46:31.551Z,101841.30
2023-02-09T22:49:02.250Z,101840.16
2023-02-09T22:51:31.343Z,101837.27
2023-02-09T22:54:00.523Z,101834.11
2023-02-09T22:56:29.973Z,101834.41
2023-02-09T22:58:59.891Z,101831.38
2023-02-09T23:01:29.520Z,101828.38
2023-02-09T23:03:58.795Z,101828.80
2023-02-09T23:06:30.229Z,101830.66
2023-02-09T23:09:04.944Z,101824.98
2023-02-09T23:11:34.072Z,101827.16
2023-02-09T23:14:10.937Z,101826.61
2023-02-09T23:16:41.766Z,101823.46
2023-02-09T23:19:14.350Z,101826.02
2023-02-09T23:21:45.526Z,101827.55
2023-02-09T23:24:17.041Z,101829.52
2023-02-09T23:26:45.483Z,101831.54
2023-02-09T23:29:15.921Z,101825.66
2023-02-09T23:31:45.616Z,101824.55
2023-02-09T23:34:17.998Z,101821.48
2023-02-09T23:36:47.199Z,101814.45
2023-02-09T23:39:18.772Z,101812.61
2023-02-09T23:41:49.192Z,101807.13
2023-02-09T23:44:19.724Z,101806.69
2023-02-09T23:46:48.373Z,101801.10
2023-02-09T23:49:16.839Z,101800.89
2023-02-09T23:51:47.010Z,101795.79
2023-02-09T23:54:15.437Z,101795.86
2023-02-09T23:56:45.538Z,101795.25
2023-02-09T23:59:16.346Z,101803.41
